YGEL

Details ICAO YGEL (GET)
Name Geraldton
Region Australia
Timezone Australia/Perth (UTC+8.0)
Plans Departing 8
Arriving 13
Stats Elevation 121 ft / 37 m (AMSL)
Location -28.791486° 114.704952°
Runways 3
Magnetic Variation 1.080° W
Sunrise 2017-12-13 21:18:21 UTC / 2017-12-14 05:18:21 Local
Sunset 2017-12-14 11:15:53 UTC / 2017-12-14 19:15:53 Local
Advertisement - Login to hide

Runways

ID Width Length Bearing (true) Bearing (mag) Surface Threshold Offset Overrun Length
03 148 ft / 45 m 6,518 ft / 1,987 m 18.30° 19.38° Asphalt 0 ft / 0 m 194 ft / 59 m
06 102 ft / 31 m 2,253 ft / 687 m 79.36° 80.44° Dirt 0 ft / 0 m 561 ft / 171 m
14 164 ft / 50 m 3,106 ft / 947 m 142.42° 143.50° Dirt 0 ft / 0 m 0 ft / 0 m
21 148 ft / 45 m 6,518 ft / 1,987 m 198.30° 199.38° Asphalt 0 ft / 0 m 220 ft / 67 m
24 102 ft / 31 m 2,253 ft / 687 m 259.36° 260.44° Dirt 0 ft / 0 m 135 ft / 41 m
32 164 ft / 50 m 3,106 ft / 947 m 322.41° 323.49° Dirt 0 ft / 0 m 0 ft / 0 m

Map

Weather


0- 5 10 15 20 25 30 35+ Temperature / ° C

Clouds and Precipitation
Forecast for 2017-12-14 06:00 UTC. Updated an hour ago

Ground ~20,000 ft ~40,000 ft Winds

METAR

YGEL 140200Z 19011KT CAVOK 28/13 Q1013

TAF

Not found

Frequencies

Unicom 126.70 MHz CTAF
Warning: Do not use this data for real-world aviation or navigation. No guarantee of current accuracy is given.